Time;durP1;ratioP1;P1;durP2;ratioP2;P2;SDS_P1;SDS_P2;PMS_P1;PMS_P2;Temp;Humidity;BMP_temperature;BMP_pressure;BME280_temperature;BME280_humidity;BME280_pressure;Samples;Min_cycle;Max_cycle;Signal;HPM_P1;HPM_P2
2023/01/28 00:00:28;;;;;;;12.63;11.40;;;2.30;99.90;;;;;;5059506;28;20127;-76
2023/01/28 00:02:54;;;;;;;12.57;11.38;;;2.20;99.90;;;;;;5043165;28;20785;-76
2023/01/28 00:05:19;;;;;;;12.63;11.43;;;2.20;99.90;;;;;;5039452;28;20032;-76
2023/01/28 00:07:48;;;;;;;13.25;11.95;;;2.20;99.90;;;;;;5049126;28;20394;-76
2023/01/28 00:10:14;;;;;;;12.70;11.50;;;2.20;99.90;;;;;;5046797;28;20397;-76
2023/01/28 00:12:40;;;;;;;13.05;11.85;;;2.20;99.90;;;;;;5057666;28;20049;-76
2023/01/28 00:15:06;;;;;;;13.52;12.18;;;2.20;99.90;;;;;;5043875;28;20041;-76
2023/01/28 00:17:32;;;;;;;13.23;12.02;;;2.20;99.90;;;;;;5042063;28;20047;-76
2023/01/28 00:19:57;;;;;;;13.30;12.00;;;2.20;99.90;;;;;;5044060;28;20045;-76
2023/01/28 00:22:23;;;;;;;12.95;11.75;;;2.20;99.90;;;;;;5047580;28;20517;-75
2023/01/28 00:24:49;;;;;;;13.52;12.25;;;2.10;99.90;;;;;;5040221;28;20125;-76
2023/01/28 00:27:15;;;;;;;13.48;12.27;;;2.20;99.90;;;;;;5038517;28;20344;-76
2023/01/28 00:29:40;;;;;;;13.93;12.68;;;2.20;99.90;;;;;;5039668;28;20041;-76
2023/01/28 00:32:06;;;;;;;13.32;12.02;;;2.10;99.90;;;;;;5047266;28;20044;-76
2023/01/28 00:34:32;;;;;;;12.60;11.43;;;2.10;99.90;;;;;;5056955;28;20036;-76
2023/01/28 00:36:57;;;;;;;12.95;11.75;;;2.10;99.90;;;;;;5056806;28;20524;-75
2023/01/28 00:39:24;;;;;;;13.43;12.23;;;2.10;99.90;;;;;;5040318;28;20482;-76
2023/01/28 00:41:51;;;;;;;12.32;11.27;;;2.10;99.90;;;;;;5039083;28;20123;-76
2023/01/28 00:44:17;;;;;;;12.85;11.65;;;2.10;99.90;;;;;;5048579;28;20055;-76
2023/01/28 00:46:43;;;;;;;12.10;11.10;;;2.10;99.90;;;;;;5056670;28;20136;-76
2023/01/28 00:49:09;;;;;;;12.10;11.02;;;2.10;99.90;;;;;;5046338;28;20128;-76
2023/01/28 00:51:35;;;;;;;12.20;11.05;;;2.10;99.90;;;;;;5039597;28;20426;-76
2023/01/28 00:54:00;;;;;;;11.88;10.77;;;2.00;99.90;;;;;;5039688;28;20079;-76
2023/01/28 00:56:26;;;;;;;12.35;11.25;;;2.10;99.90;;;;;;5039152;28;20044;-76
2023/01/28 00:58:53;;;;;;;12.25;11.15;;;2.10;99.90;;;;;;5037905;28;20041;-76
2023/01/28 01:01:24;;;;;;;12.90;11.80;;;2.10;99.90;;;;;;5047859;28;20040;-76
2023/01/28 01:03:56;;;;;;;12.68;11.52;;;2.10;99.90;;;;;;5045309;28;20131;-76
2023/01/28 01:06:23;;;;;;;12.70;11.60;;;2.00;99.90;;;;;;5039305;28;20150;-76
2023/01/28 01:08:50;;;;;;;12.77;11.68;;;2.10;99.90;;;;;;5037052;28;20040;-76
2023/01/28 01:11:16;;;;;;;12.95;11.82;;;2.10;99.90;;;;;;5037856;28;20033;-76
2023/01/28 01:13:42;;;;;;;13.00;11.90;;;2.10;99.90;;;;;;5043382;28;20390;-76
2023/01/28 01:16:11;;;;;;;12.90;11.75;;;2.00;99.90;;;;;;5055970;28;20037;-76
2023/01/28 01:18:40;;;;;;;12.52;11.43;;;2.00;99.90;;;;;;5054731;28;20131;-75
2023/01/28 01:21:08;;;;;;;12.75;11.65;;;2.10;99.90;;;;;;5037529;28;20054;-76
2023/01/28 01:23:34;;;;;;;13.13;12.02;;;2.00;99.90;;;;;;5045190;28;20063;-76
2023/01/28 01:26:00;;;;;;;12.95;11.75;;;2.00;99.90;;;;;;5039306;28;20041;-76
2023/01/28 01:28:26;;;;;;;12.68;11.57;;;2.00;99.90;;;;;;5037684;28;20036;-76
2023/01/28 01:30:59;;;;;;;12.15;11.13;;;2.00;99.90;;;;;;5035827;28;20048;-76
2023/01/28 01:33:25;;;;;;;12.88;11.75;;;2.00;99.90;;;;;;5039333;28;20036;-75
2023/01/28 01:35:54;;;;;;;13.52;12.40;;;2.00;99.90;;;;;;5047153;28;20426;-76
2023/01/28 01:38:20;;;;;;;13.50;12.30;;;2.00;99.90;;;;;;5055708;28;20418;-75
2023/01/28 01:40:46;;;;;;;12.98;11.77;;;2.00;99.90;;;;;;5043584;28;20037;-75
2023/01/28 01:43:19;;;;;;;11.88;10.77;;;1.90;99.90;;;;;;5042812;28;20162;-75
2023/01/28 01:45:51;;;;;;;12.82;11.52;;;2.00;99.90;;;;;;5034745;28;20128;-75
2023/01/28 01:48:24;;;;;;;11.90;10.80;;;2.00;99.90;;;;;;5029329;28;20487;-72
2023/01/28 01:51:10;;;;;;;12.77;11.68;;;1.90;99.90;;;;;;5032200;28;20041;-73
2023/01/28 01:53:39;;;;;;;11.70;10.70;;;1.90;99.90;;;;;;5044406;28;20439;-75
2023/01/28 01:56:09;;;;;;;12.48;11.32;;;1.90;99.90;;;;;;5044576;28;20045;-73
2023/01/28 01:58:39;;;;;;;12.93;11.73;;;1.90;99.90;;;;;;5044489;28;20032;-72
2023/01/28 02:01:06;;;;;;;12.82;11.63;;;1.80;99.90;;;;;;5035389;28;20127;-72
2023/01/28 02:03:40;;;;;;;12.15;11.07;;;1.90;99.90;;;;;;5054994;28;20048;-73
2023/01/28 02:06:08;;;;;;;12.85;11.65;;;1.80;99.90;;;;;;5043791;28;20040;-77
2023/01/28 02:08:33;;;;;;;13.30;12.10;;;1.90;99.90;;;;;;5049275;28;20390;-72
2023/01/28 02:11:05;;;;;;;13.68;12.38;;;1.80;99.90;;;;;;5042184;28;20138;-72
2023/01/28 02:13:42;;;;;;;7.97;5.17;;;1.80;99.90;;;;;;5044989;28;20509;-72
2023/01/28 02:16:09;;;;;;;13.55;12.25;;;1.80;99.90;;;;;;5037798;28;20490;-76
2023/01/28 02:18:35;;;;;;;13.55;12.35;;;1.80;99.90;;;;;;5061260;28;20037;-73
2023/01/28 02:21:32;;;;;;;13.95;12.65;;;1.70;99.90;;;;;;5062915;28;20125;-72
2023/01/28 02:24:10;;;;;;;14.63;13.20;;;1.80;99.90;;;;;;5064378;28;20036;-73
2023/01/28 02:26:44;;;;;;;14.40;12.95;;;1.70;99.90;;;;;;5045323;28;20076;-72
2023/01/28 02:29:35;;;;;;;14.85;13.45;;;1.70;99.90;;;;;;5045385;28;20044;-72
2023/01/28 02:32:12;;;;;;;15.45;14.05;;;1.70;99.90;;;;;;5071137;28;20084;-74
2023/01/28 02:34:58;;;;;;;15.00;13.60;;;1.60;99.90;;;;;;5054790;28;20098;-72
2023/01/28 02:37:37;;;;;;;16.25;14.75;;;1.60;99.90;;;;;;5048197;28;20082;-72
2023/01/28 02:40:11;;;;;;;15.43;13.98;;;1.60;99.90;;;;;;5036365;28;20550;-75
2023/01/28 02:42:39;;;;;;;15.80;14.30;;;1.60;99.90;;;;;;5035607;28;20055;-73
2023/01/28 02:47:56;;;;;;;16.45;14.85;;;1.60;99.90;;;;;;5052962;28;20045;-76
2023/01/28 02:48:13;;;;;;;17.13;15.52;;;1.60;99.90;;;;;;5065907;28;20425;-76
2023/01/28 02:50:53;;;;;;;17.23;15.63;;;1.50;99.90;;;;;;5037845;28;20032;-73
2023/01/28 02:53:45;;;;;;;16.73;15.23;;;1.60;99.90;;;;;;5029865;28;20090;-72
2023/01/28 02:56:28;;;;;;;17.38;15.77;;;1.50;99.90;;;;;;5037448;28;20044;-73
2023/01/28 02:58:53;;;;;;;;;;;1.50;99.90;;;;;;5035178;28;20150;-73
2023/01/28 03:01:30;;;;;;;16.63;15.13;;;1.50;99.90;;;;;;5036689;28;20003;-73
2023/01/28 03:04:06;;;;;;;17.27;15.68;;;1.50;99.90;;;;;;5050198;28;20101;-73
2023/01/28 03:06:44;;;;;;;17.17;15.57;;;1.60;99.90;;;;;;5031478;28;20079;-73
2023/01/28 03:09:21;;;;;;;17.65;16.05;;;1.50;99.90;;;;;;5036178;28;20123;-74
2023/01/28 03:38:19;;;;;;;18.65;16.85;;;1.50;99.90;;;;;;5052979;28;20078;-72
2023/01/28 03:40:59;;;;;;;12.53;7.37;;;1.50;99.90;;;;;;5045397;28;20045;-73
2023/01/28 03:43:25;;;;;;;18.83;17.13;;;1.50;99.90;;;;;;5026207;28;20306;-72
2023/01/28 03:45:51;;;;;;;18.42;16.73;;;1.50;99.90;;;;;;5045066;28;20479;-73
2023/01/28 03:48:24;;;;;;;19.65;17.75;;;1.50;99.90;;;;;;5034360;28;20032;-76
2023/01/28 03:50:51;;;;;;;17.80;16.10;;;1.50;99.90;;;;;;5044336;28;20074;-74
2023/01/28 03:53:18;;;;;;;18.45;16.70;;;1.50;99.90;;;;;;5029369;28;20063;-73
2023/01/28 03:55:45;;;;;;;18.00;16.30;;;1.50;99.90;;;;;;5044813;28;20037;-72
2023/01/28 03:58:12;;;;;;;18.23;16.52;;;1.40;99.90;;;;;;5052024;28;20391;-72
2023/01/28 04:00:40;;;;;;;17.75;16.05;;;1.40;99.90;;;;;;5034664;28;20469;-72
2023/01/28 04:03:17;;;;;;;17.50;15.85;;;1.40;99.90;;;;;;5044746;28;20453;-73
2023/01/28 04:05:56;;;;;;;19.10;17.30;;;1.40;99.90;;;;;;5044569;28;20040;-76
2023/01/28 04:08:21;;;;;;;19.52;17.70;;;1.50;99.90;;;;;;5052129;28;20441;-73
2023/01/28 04:10:47;;;;;;;17.73;16.10;;;1.40;99.90;;;;;;5036027;28;20037;-75
2023/01/28 04:13:13;;;;;;;19.02;17.23;;;1.50;99.90;;;;;;5044157;28;20029;-72
2023/01/28 04:15:38;;;;;;;18.35;16.63;;;1.50;99.90;;;;;;5043825;22;20140;-73
2023/01/28 04:18:04;;;;;;;18.33;16.52;;;1.50;99.90;;;;;;5039777;28;20159;-74
2023/01/28 04:20:30;;;;;;;17.88;16.10;;;1.50;99.90;;;;;;5029428;28;20044;-74
2023/01/28 04:22:56;;;;;;;18.58;16.83;;;1.50;99.90;;;;;;5029911;28;20048;-74
2023/01/28 04:25:22;;;;;;;17.58;15.95;;;1.40;99.90;;;;;;5031735;28;20037;-74
2023/01/28 04:27:47;;;;;;;17.13;15.52;;;1.40;99.90;;;;;;5033752;28;20064;-74
2023/01/28 04:30:13;;;;;;;18.08;16.27;;;1.50;99.90;;;;;;5023022;28;20041;-74
2023/01/28 04:32:38;;;;;;;17.88;16.27;;;1.50;99.90;;;;;;5033676;28;20525;-74
2023/01/28 04:35:04;;;;;;;17.60;15.95;;;1.40;99.90;;;;;;5033663;28;20169;-74
2023/01/28 04:37:30;;;;;;;18.08;16.30;;;1.40;99.90;;;;;;5033221;28;20128;-74
2023/01/28 04:39:55;;;;;;;19.02;17.15;;;1.40;99.90;;;;;;5013999;28;20041;-74
2023/01/28 04:42:21;;;;;;;17.50;15.82;;;1.40;99.90;;;;;;5032338;28;20039;-74
2023/01/28 04:44:47;;;;;;;17.40;15.80;;;1.40;99.90;;;;;;5016623;28;20044;-74
2023/01/28 04:47:12;;;;;;;17.35;15.75;;;1.40;99.90;;;;;;5033117;28;20037;-74
2023/01/28 04:49:38;;;;;;;17.40;15.90;;;1.40;99.90;;;;;;5033241;28;20034;-74
2023/01/28 04:52:03;;;;;;;17.20;15.60;;;1.40;99.90;;;;;;5022815;28;20125;-74
2023/01/28 04:54:29;;;;;;;16.77;15.18;;;1.40;99.90;;;;;;5039964;28;20037;-74
2023/01/28 04:56:55;;;;;;;17.13;15.52;;;1.40;99.90;;;;;;5025175;28;20141;-74
2023/01/28 04:59:22;;;;;;;17.73;16.02;;;1.40;99.90;;;;;;5052948;28;20067;-74
2023/01/28 05:01:48;;;;;;;17.52;15.93;;;1.40;99.90;;;;;;5026837;28;20120;-74
2023/01/28 05:04:16;;;;;;;17.35;15.75;;;1.40;99.90;;;;;;5032464;28;20361;-74
2023/01/28 05:06:41;;;;;;;16.88;15.27;;;1.40;99.90;;;;;;5040573;28;20041;-74
2023/01/28 05:09:07;;;;;;;17.15;15.57;;;1.40;99.90;;;;;;5051821;28;20040;-74
2023/01/28 05:11:33;;;;;;;17.90;16.30;;;1.40;99.90;;;;;;5037346;28;20079;-74
2023/01/28 05:13:58;;;;;;;17.23;15.63;;;1.40;99.90;;;;;;5032687;28;20132;-74
2023/01/28 05:16:24;;;;;;;18.73;17.02;;;1.40;99.90;;;;;;5016305;28;20514;-74
2023/01/28 05:18:50;;;;;;;18.75;16.98;;;1.40;99.90;;;;;;5030114;28;20037;-74
2023/01/28 05:21:16;;;;;;;18.55;16.85;;;1.40;99.90;;;;;;5031932;28;20037;-74
2023/01/28 05:23:42;;;;;;;17.73;16.13;;;1.40;99.90;;;;;;5032547;28;20041;-74
2023/01/28 05:26:08;;;;;;;17.63;16.02;;;1.40;99.90;;;;;;5032478;28;20038;-74
2023/01/28 05:28:34;;;;;;;17.25;15.57;;;1.40;99.90;;;;;;5032160;28;20396;-74
2023/01/28 05:31:05;;;;;;;17.92;16.25;;;1.40;99.90;;;;;;5031266;28;20033;-74
2023/01/28 05:33:30;;;;;;;17.08;15.38;;;1.40;99.90;;;;;;5014962;28;20404;-74
2023/01/28 05:35:56;;;;;;;16.40;14.90;;;1.40;99.90;;;;;;5023941;28;20043;-74
2023/01/28 05:38:22;;;;;;;16.73;15.15;;;1.40;99.90;;;;;;5032241;28;20077;-74
2023/01/28 05:40:47;;;;;;;17.10;15.50;;;1.30;99.90;;;;;;5031434;28;20045;-74
2023/01/28 05:43:13;;;;;;;16.40;14.80;;;1.40;99.90;;;;;;5031261;28;20542;-74
2023/01/28 05:45:39;;;;;;;17.05;15.45;;;1.40;99.90;;;;;;5040132;28;20037;-74
2023/01/28 05:48:05;;;;;;;17.42;15.82;;;1.40;99.90;;;;;;5032042;28;20476;-74
2023/01/28 05:50:31;;;;;;;17.50;15.80;;;1.40;99.90;;;;;;5028821;28;20086;-74
2023/01/28 05:52:57;;;;;;;16.88;15.30;;;1.40;99.90;;;;;;5016034;28;20545;-74
2023/01/28 05:55:23;;;;;;;16.48;14.95;;;1.40;99.90;;;;;;5032008;28;20041;-74
2023/01/28 05:57:49;;;;;;;17.25;15.63;;;1.40;99.90;;;;;;5015501;28;20045;-74
2023/01/28 06:00:15;;;;;;;17.02;15.38;;;1.40;99.90;;;;;;5013384;28;20523;-74
2023/01/28 06:02:41;;;;;;;17.65;15.95;;;1.40;99.90;;;;;;5030366;28;20041;-74
2023/01/28 06:05:08;;;;;;;17.05;15.45;;;1.40;99.90;;;;;;5042413;28;20049;-74
2023/01/28 06:07:33;;;;;;;17.58;15.88;;;1.40;99.90;;;;;;5051859;28;20098;-74
2023/01/28 06:09:59;;;;;;;17.15;15.45;;;1.30;99.90;;;;;;5049749;28;20064;-74
2023/01/28 06:12:25;;;;;;;18.50;16.67;;;1.30;99.90;;;;;;5030312;28;20580;-74
2023/01/28 06:14:50;;;;;;;17.65;15.90;;;1.30;99.90;;;;;;5014447;28;20552;-74
2023/01/28 06:17:16;;;;;;;17.92;16.23;;;1.30;99.90;;;;;;5039445;28;20079;-74
2023/01/28 06:19:42;;;;;;;18.25;16.55;;;1.30;99.90;;;;;;5031602;28;20399;-74
2023/01/28 06:22:08;;;;;;;17.98;16.38;;;1.30;99.90;;;;;;5028084;28;20044;-74
2023/01/28 06:24:34;;;;;;;18.10;16.38;;;1.30;99.90;;;;;;5031276;28;20033;-74
2023/01/28 06:26:59;;;;;;;17.60;15.98;;;1.30;99.90;;;;;;5038234;28;20044;-74
2023/01/28 06:29:25;;;;;;;18.02;16.30;;;1.30;99.90;;;;;;5027842;28;20489;-74
2023/01/28 06:31:51;;;;;;;17.95;16.23;;;1.30;99.90;;;;;;5047817;28;20478;-74
2023/01/28 06:34:17;;;;;;;18.20;16.42;;;1.30;99.90;;;;;;5031029;28;20036;-74
2023/01/28 06:36:42;;;;;;;19.48;17.58;;;1.30;99.90;;;;;;5014688;28;20037;-74
2023/01/28 06:39:08;;;;;;;18.85;17.05;;;1.30;99.90;;;;;;5031117;28;20037;-74
2023/01/28 06:41:34;;;;;;;18.35;16.55;;;1.30;99.90;;;;;;5029727;28;20049;-74
2023/01/28 06:43:59;;;;;;;18.83;16.83;;;1.30;99.90;;;;;;5046179;28;20131;-74
2023/01/28 06:46:25;;;;;;;19.27;17.48;;;1.30;99.90;;;;;;5030971;28;20042;-74
2023/01/28 06:48:50;;;;;;;18.13;16.33;;;1.30;99.90;;;;;;5030505;28;20037;-74
2023/01/28 06:51:16;;;;;;;18.48;16.67;;;1.30;99.90;;;;;;5017620;28;20182;-74
2023/01/28 06:53:41;;;;;;;17.67;16.02;;;1.30;99.90;;;;;;5016181;28;20037;-74
2023/01/28 06:56:07;;;;;;;19.10;17.20;;;1.30;99.90;;;;;;5029805;28;20041;-74
2023/01/28 06:58:34;;;;;;;19.55;17.55;;;1.30;99.90;;;;;;5030666;28;20037;-74
2023/01/28 07:01:00;;;;;;;19.42;17.52;;;1.30;99.90;;;;;;5015010;28;20127;-74
2023/01/28 07:03:25;;;;;;;19.20;17.20;;;1.30;99.90;;;;;;5018365;28;20047;-74
2023/01/28 07:05:51;;;;;;;18.30;16.50;;;1.30;99.90;;;;;;5029557;28;20045;-74
2023/01/28 07:08:17;;;;;;;18.80;16.90;;;1.30;99.90;;;;;;5030515;28;20495;-74
2023/01/28 07:10:43;;;;;;;18.30;16.50;;;1.30;99.90;;;;;;5029966;28;20495;-74
2023/01/28 07:13:09;;;;;;;18.38;16.58;;;1.20;99.90;;;;;;5028171;28;20034;-74
2023/01/28 07:15:35;;;;;;;19.38;17.38;;;1.20;99.90;;;;;;5029240;28;20038;-74
2023/01/28 07:18:00;;;;;;;19.27;17.33;;;1.20;99.90;;;;;;5040245;28;20524;-74
2023/01/28 07:20:26;;;;;;;19.35;17.45;;;1.20;99.90;;;;;;5050468;28;20044;-74
2023/01/28 07:22:52;;;;;;;18.98;17.08;;;1.20;99.90;;;;;;5040558;28;20465;-74
2023/01/28 07:25:17;;;;;;;19.33;17.27;;;1.20;99.90;;;;;;5029180;28;20048;-74
2023/01/28 07:27:48;;;;;;;19.23;17.23;;;1.30;99.90;;;;;;5031849;28;20096;-74
2023/01/28 07:30:14;;;;;;;20.02;17.92;;;1.20;99.90;;;;;;5014164;28;20072;-74
2023/01/28 07:32:40;;;;;;;18.08;16.27;;;1.20;99.90;;;;;;5013230;28;20048;-74
2023/01/28 07:35:06;;;;;;;19.70;17.70;;;1.30;99.90;;;;;;5030493;28;20045;-74
2023/01/28 07:37:32;;;;;;;17.27;15.55;;;1.20;99.90;;;;;;5028782;28;20037;-74
2023/01/28 07:39:57;;;;;;;18.95;17.05;;;1.30;99.90;;;;;;5011957;28;20048;-74
2023/01/28 07:42:23;;;;;;;19.33;17.20;;;1.20;99.90;;;;;;5020314;28;20037;-74
2023/01/28 07:44:48;;;;;;;19.60;16.70;;;1.20;99.90;;;;;;5011024;28;20095;-74
2023/01/28 07:47:14;;;;;;;13.65;7.80;;;1.20;99.90;;;;;;5029770;28;20041;-74
2023/01/28 07:49:40;;;;;;;18.05;16.00;;;1.20;99.90;;;;;;5025654;28;20037;-72
2023/01/28 07:52:06;;;;;;;18.15;16.33;;;1.20;99.90;;;;;;5029180;28;20522;-72
2023/01/28 07:54:32;;;;;;;18.50;16.60;;;1.20;99.90;;;;;;5028057;28;20391;-71
2023/01/28 07:56:58;;;;;;;21.08;17.75;;;1.20;99.90;;;;;;5024376;28;20037;-71
2023/01/28 07:59:23;;;;;;;18.55;16.65;;;1.20;99.90;;;;;;5030578;28;20045;-71
2023/01/28 08:01:49;;;;;;;18.80;16.83;;;1.20;99.90;;;;;;5032752;28;20132;-71
2023/01/28 08:04:14;;;;;;;18.45;16.65;;;1.20;99.90;;;;;;5032580;28;20049;-70
2023/01/28 08:06:40;;;;;;;17.55;15.70;;;1.20;99.90;;;;;;5033932;28;20040;-71
2023/01/28 08:09:07;;;;;;;17.90;16.10;;;1.20;99.90;;;;;;5032826;28;20048;-71
2023/01/28 08:11:37;;;;;;;18.42;16.38;;;1.20;99.90;;;;;;5033470;28;20098;-71
2023/01/28 08:14:03;;;;;;;18.25;16.42;;;1.20;99.90;;;;;;5041291;28;20656;-70
2023/01/28 08:16:30;;;;;;;17.40;15.65;;;1.10;99.90;;;;;;5040259;28;20071;-70
2023/01/28 08:18:55;;;;;;;18.33;16.42;;;1.20;99.90;;;;;;5033747;28;20503;-70
2023/01/28 08:21:21;;;;;;;18.25;16.25;;;1.20;99.90;;;;;;5032439;28;20037;-71
2023/01/28 08:23:47;;;;;;;17.80;16.00;;;1.10;99.90;;;;;;5032959;28;20488;-71
2023/01/28 08:26:12;;;;;;;18.13;16.23;;;1.10;99.90;;;;;;5030978;28;20048;-72
2023/01/28 08:28:38;;;;;;;19.15;17.17;;;1.10;99.90;;;;;;5032449;28;20082;-70
2023/01/28 08:31:04;;;;;;;18.13;16.23;;;1.10;99.90;;;;;;5038399;28;20037;-71
2023/01/28 08:33:29;;;;;;;18.02;16.23;;;1.00;99.90;;;;;;5033742;28;20492;-71
2023/01/28 08:35:55;;;;;;;18.63;16.65;;;0.90;99.90;;;;;;5033289;28;20041;-71
2023/01/28 08:38:20;;;;;;;13.18;7.00;;;0.90;99.90;;;;;;5033286;28;20114;-71
2023/01/28 08:40:46;;;;;;;19.38;17.38;;;0.80;99.90;;;;;;5039800;28;20110;-71
2023/01/28 08:43:12;;;;;;;19.02;17.10;;;0.80;99.90;;;;;;5041340;28;20045;-71
2023/01/28 08:45:41;;;;;;;20.52;17.17;;;0.80;99.90;;;;;;5048124;28;20086;-71
2023/01/28 08:48:11;;;;;;;21.90;17.48;;;0.70;99.90;;;;;;5053415;28;20120;-71
2023/01/28 08:50:38;;;;;;;18.55;16.58;;;0.70;99.90;;;;;;5036651;28;20079;-71
2023/01/28 08:53:06;;;;;;;19.70;17.70;;;0.70;99.90;;;;;;5053065;28;20570;-71
2023/01/28 08:55:33;;;;;;;17.98;16.10;;;0.80;99.90;;;;;;5052075;28;20049;-71
2023/01/28 08:58:05;;;;;;;19.05;17.05;;;0.90;99.90;;;;;;5044424;28;20056;-71
2023/01/28 09:00:32;;;;;;;13.30;7.38;;;1.00;99.90;;;;;;5053161;28;20551;-71
2023/01/28 09:02:57;;;;;;;21.25;17.30;;;1.00;99.90;;;;;;5053221;28;20056;-71
2023/01/28 09:05:23;;;;;;;18.65;16.65;;;1.10;99.90;;;;;;5047159;28;20049;-71
2023/01/28 09:07:49;;;;;;;18.27;16.40;;;1.20;99.90;;;;;;5041084;28;20092;-71
2023/01/28 09:10:15;;;;;;;18.85;16.95;;;1.30;99.90;;;;;;5012871;28;20400;-71
2023/01/28 09:12:42;;;;;;;18.70;16.80;;;1.30;99.90;;;;;;5013093;28;20049;-71
2023/01/28 09:15:09;;;;;;;12.68;7.65;;;1.30;99.90;;;;;;5012870;28;20030;-71
2023/01/28 09:17:35;;;;;;;19.20;17.20;;;1.20;99.90;;;;;;5012819;28;20057;-71
2023/01/28 09:20:00;;;;;;;18.70;16.75;;;1.20;99.90;;;;;;5021854;28;20041;-71
2023/01/28 09:22:26;;;;;;;18.00;16.20;;;1.20;99.90;;;;;;5027906;28;20580;-71
2023/01/28 09:24:51;;;;;;;19.25;17.30;;;1.20;99.90;;;;;;5052426;28;20111;-71
2023/01/28 09:27:17;;;;;;;17.80;16.08;;;1.20;99.90;;;;;;5052476;28;20082;-71
2023/01/28 09:29:43;;;;;;;18.02;16.30;;;1.20;99.90;;;;;;5052481;28;20048;-71
2023/01/28 09:32:08;;;;;;;17.98;7.53;;;1.20;99.90;;;;;;5043825;28;20175;-71
2023/01/28 09:34:34;;;;;;;14.25;7.60;;;1.30;99.90;;;;;;5043771;28;20044;-71
2023/01/28 09:37:00;;;;;;;18.08;16.17;;;1.50;99.90;;;;;;5051939;28;20423;-71
2023/01/28 09:39:27;;;;;;;15.57;14.02;;;1.80;99.90;;;;;;5052357;28;20040;-71
2023/01/28 09:42:18;;;;;;;15.05;13.55;;;2.00;99.90;;;;;;5052257;28;20044;-71
2023/01/28 09:44:52;;;;;;;15.82;14.23;;;2.30;99.90;;;;;;5015826;28;20049;-71
2023/01/28 09:47:34;;;;;;;14.90;13.40;;;2.50;99.90;;;;;;5036758;28;20064;-72
2023/01/28 09:50:04;;;;;;;15.73;14.13;;;2.70;99.90;;;;;;5030573;28;20044;-71
2023/01/28 09:52:35;;;;;;;16.63;14.93;;;2.80;99.90;;;;;;5032213;28;20072;-71
2023/01/28 09:55:28;;;;;;;16.13;14.52;;;2.90;99.90;;;;;;5030996;28;20049;-70
2023/01/28 09:57:55;;;;;;;17.10;15.32;;;3.00;99.90;;;;;;5031920;28;20049;-71
2023/01/28 10:00:28;;;;;;;16.40;14.70;;;3.10;99.90;;;;;;5031282;28;20048;-71
2023/01/28 10:03:11;;;;;;;16.05;14.35;;;3.10;99.90;;;;;;5029874;28;20041;-72
2023/01/28 10:05:58;;;;;;;16.55;14.85;;;3.10;99.90;;;;;;5022918;28;20038;-73
2023/01/28 10:08:57;;;;;;;16.60;14.70;;;3.20;99.90;;;;;;5044234;28;20552;-72
2023/01/28 10:11:41;;;;;;;15.13;13.57;;;3.30;99.90;;;;;;5035418;28;20033;-72
2023/01/28 10:14:22;;;;;;;14.93;13.43;;;3.40;99.90;;;;;;5030324;28;20124;-72
2023/01/28 10:17:08;;;;;;;14.05;12.60;;;3.50;99.90;;;;;;5032033;28;20033;-73
2023/01/28 10:20:27;;;;;;;16.48;14.77;;;3.40;99.90;;;;;;5017375;28;20044;-72
2023/01/28 10:23:05;;;;;;;14.65;13.25;;;3.30;99.90;;;;;;4977712;28;20049;-71
2023/01/28 10:25:32;;;;;;;14.90;13.18;;;3.20;99.90;;;;;;5038536;28;20041;-72
2023/01/28 10:28:00;;;;;;;16.17;13.55;;;3.20;99.90;;;;;;5033931;28;20099;-72
2023/01/28 10:30:30;;;;;;;14.25;12.85;;;3.10;99.90;;;;;;5031622;28;20039;-73
2023/01/28 10:33:02;;;;;;;16.33;14.63;;;3.10;99.90;;;;;;5031165;28;20037;-73
2023/01/28 10:35:32;;;;;;;17.65;15.85;;;3.10;99.90;;;;;;5020481;28;20049;-72
2023/01/28 10:38:05;;;;;;;16.35;14.75;;;3.20;99.90;;;;;;5029987;28;20049;-73
2023/01/28 10:40:31;;;;;;;15.88;14.27;;;3.20;99.90;;;;;;5030612;28;20046;-72
2023/01/28 10:42:56;;;;;;;15.48;13.98;;;3.30;99.90;;;;;;5031125;28;20496;-71
2023/01/28 10:45:36;;;;;;;15.30;13.80;;;3.40;99.90;;;;;;5031001;28;20041;-73
2023/01/28 10:48:29;;;;;;;14.07;12.73;;;3.50;99.90;;;;;;5026282;28;20348;-73
2023/01/28 10:51:00;;;;;;;16.02;14.43;;;3.70;99.90;;;;;;5011611;28;20064;-73
2023/01/28 10:53:36;;;;;;;13.80;12.40;;;3.80;99.90;;;;;;5049616;28;20120;-73
2023/01/28 10:56:05;;;;;;;14.18;12.77;;;3.90;99.90;;;;;;5030852;28;20496;-73
2023/01/28 10:58:35;;;;;;;12.38;11.18;;;4.00;99.90;;;;;;5030198;28;20416;-72
2023/01/28 11:01:03;;;;;;;14.80;13.30;;;4.10;99.90;;;;;;5030865;28;20387;-73
2023/01/28 11:03:34;;;;;;;14.38;12.88;;;4.20;99.90;;;;;;5042373;28;20052;-73
2023/01/28 11:06:01;;;;;;;14.05;12.55;;;4.30;99.90;;;;;;5050590;28;20051;-74
2023/01/28 11:08:28;;;;;;;13.10;11.75;;;4.30;99.90;;;;;;5027751;28;20037;-73
2023/01/28 11:10:55;;;;;;;13.90;12.43;;;4.30;99.90;;;;;;5025645;28;20037;-73
2023/01/28 11:13:29;;;;;;;11.60;10.48;;;4.40;99.90;;;;;;5033977;28;20087;-72
2023/01/28 11:16:01;;;;;;;11.63;10.43;;;4.50;99.90;;;;;;5042108;28;20048;-73
2023/01/28 11:18:30;;;;;;;11.27;9.95;;;4.50;99.90;;;;;;5033713;28;20092;-73
2023/01/28 11:21:01;;;;;;;11.48;10.38;;;4.60;99.90;;;;;;5013163;28;20042;-73
2023/01/28 11:23:30;;;;;;;12.15;10.95;;;4.70;99.90;;;;;;5011131;28;20466;-73
2023/01/28 11:26:18;;;;;;;11.55;10.45;;;4.80;99.90;;;;;;5028500;28;20037;-72
2023/01/28 11:28:44;;;;;;;11.30;10.10;;;4.90;99.90;;;;;;5015543;28;20404;-73
2023/01/28 11:31:13;;;;;;;10.98;9.88;;;5.10;99.90;;;;;;5030364;28;20048;-73
2023/01/28 11:33:48;;;;;;;11.18;10.07;;;5.30;99.90;;;;;;5030148;28;20550;-72
2023/01/28 11:36:19;;;;;;;11.48;10.27;;;5.60;99.90;;;;;;5029733;28;20524;-73
2023/01/28 11:38:54;;;;;;;11.20;10.10;;;5.90;99.90;;;;;;5028575;28;20045;-73
2023/01/28 11:41:31;;;;;;;11.95;10.77;;;6.20;99.90;;;;;;5030361;28;20069;-73
2023/01/28 11:44:00;;;;;;;11.68;10.48;;;6.30;99.90;;;;;;5020809;28;20036;-73
2023/01/28 11:46:26;;;;;;;11.32;10.23;;;6.40;99.90;;;;;;5043430;28;20084;-73
2023/01/28 11:49:03;;;;;;;11.75;10.55;;;6.60;99.90;;;;;;5050183;28;20619;-73
2023/01/28 11:51:37;;;;;;;11.40;10.23;;;7.00;99.90;;;;;;5050497;28;20083;-74
2023/01/28 11:54:15;;;;;;;12.18;10.98;;;7.40;99.90;;;;;;5040099;28;20107;-74
2023/01/28 11:57:10;;;;;;;11.20;10.10;;;8.00;99.90;;;;;;5050070;28;20088;-74
2023/01/28 11:59:38;;;;;;;10.25;9.25;;;8.60;99.90;;;;;;5050578;28;20110;-74
2023/01/28 12:02:44;;;;;;;11.02;10.02;;;9.20;99.90;;;;;;5032043;28;20053;-73
2023/01/28 12:05:34;;;;;;;11.10;9.63;;;9.70;99.90;;;;;;5030057;28;20052;-73
2023/01/28 12:08:05;;;;;;;11.13;10.02;;;9.90;99.90;;;;;;5037852;28;20044;-74
2023/01/28 12:11:03;;;;;;;10.75;8.63;;;10.30;99.90;;;;;;5036223;28;20042;-74
2023/01/28 12:13:38;;;;;;;9.00;7.97;;;10.80;99.90;;;;;;5031463;28;20411;-74
2023/01/28 12:16:30;;;;;;;8.50;7.70;;;11.20;99.90;;;;;;5015086;28;20476;-74
2023/01/28 12:19:13;;;;;;;8.38;7.57;;;11.50;99.90;;;;;;5041590;28;20136;-74
2023/01/28 12:21:54;;;;;;;8.40;7.60;;;11.70;99.90;;;;;;5049943;28;20133;-74
2023/01/28 12:24:36;;;;;;;9.00;8.10;;;11.50;99.90;;;;;;5049858;28;20045;-73
2023/01/28 12:27:32;;;;;;;9.70;8.70;;;11.50;99.90;;;;;;5049695;28;20380;-73
2023/01/28 12:30:43;;;;;;;8.80;7.90;;;11.30;99.90;;;;;;5007842;28;20406;-74
2023/01/28 12:33:36;;;;;;;8.15;6.97;;;11.10;99.90;;;;;;5035702;28;20056;-74
2023/01/28 12:36:21;;;;;;;8.15;7.40;;;10.80;99.90;;;;;;5049661;28;20041;-74
2023/01/28 12:39:01;;;;;;;8.70;7.85;;;10.20;99.90;;;;;;5049656;28;20086;-74
2023/01/28 12:41:33;;;;;;;7.60;6.90;;;9.60;99.90;;;;;;5049668;28;20037;-73
2023/01/28 12:44:10;;;;;;;9.75;7.78;;;9.10;99.90;;;;;;5038778;28;20525;-73
2023/01/28 12:46:44;;;;;;;8.77;7.90;;;8.60;99.90;;;;;;5046410;28;20088;-73
2023/01/28 12:49:15;;;;;;;8.05;7.25;;;8.30;99.90;;;;;;5053256;28;20044;-73
2023/01/28 12:51:55;;;;;;;9.10;7.90;;;8.00;99.90;;;;;;5053253;28;20037;-73
2023/01/28 12:54:26;;;;;;;10.20;9.10;;;7.70;99.90;;;;;;5053233;28;20033;-73
2023/01/28 12:56:55;;;;;;;9.60;8.60;;;7.40;99.90;;;;;;5045417;28;20495;-73
2023/01/28 12:59:44;;;;;;;9.65;8.55;;;7.10;99.90;;;;;;5045017;28;20079;-73
2023/01/28 13:02:17;;;;;;;9.70;8.70;;;7.00;99.90;;;;;;5053117;28;20103;-73
2023/01/28 13:05:12;;;;;;;8.68;7.78;;;6.80;99.90;;;;;;5052956;28;20045;-73
2023/01/28 13:07:51;;;;;;;9.20;7.85;;;6.60;99.90;;;;;;5053037;28;20391;-74
2023/01/28 13:10:28;;;;;;;9.35;8.43;;;6.40;99.90;;;;;;5051365;28;20076;-73
2023/01/28 13:12:56;;;;;;;9.93;8.70;;;6.20;99.90;;;;;;5042035;28;20479;-73
2023/01/28 13:15:23;;;;;;;9.65;8.05;;;6.30;99.90;;;;;;5045061;28;20061;-74
2023/01/28 13:18:02;;;;;;;9.95;8.95;;;6.40;99.90;;;;;;5048793;28;20029;-73
2023/01/28 13:20:36;;;;;;;9.35;8.45;;;6.60;99.90;;;;;;5049879;28;20037;-73